createdAt,value
2023-04-14T00:00:28.788Z,70.70
2023-04-14T00:01:31.571Z,70.90
2023-04-14T00:02:36.292Z,70.70
2023-04-14T00:03:38.931Z,70.50
2023-04-14T00:04:42.137Z,70.30
2023-04-14T00:05:44.397Z,70.30
2023-04-14T00:06:46.577Z,70.30
2023-04-14T00:07:48.670Z,70.50
2023-04-14T00:08:50.836Z,70.50
2023-04-14T00:09:53.034Z,70.30
2023-04-14T00:10:55.200Z,70.50
2023-04-14T00:11:58.783Z,70.50
2023-04-14T00:13:03.138Z,70.40
2023-04-14T00:14:06.018Z,70.10
2023-04-14T00:15:09.226Z,70.00
2023-04-14T00:16:12.367Z,70.30
2023-04-14T00:17:14.613Z,69.40
2023-04-14T00:18:16.745Z,69.10
2023-04-14T00:19:18.864Z,68.90
2023-04-14T00:20:21.052Z,68.70
2023-04-14T00:21:23.221Z,68.60
2023-04-14T00:22:25.337Z,68.70
2023-04-14T00:23:27.495Z,68.80
2023-04-14T00:24:29.601Z,68.80
2023-04-14T00:25:31.698Z,68.90
2023-04-14T00:26:33.948Z,69.60
2023-04-14T00:27:37.511Z,69.00
2023-04-14T00:28:39.717Z,69.10
2023-04-14T00:29:41.833Z,69.10
2023-04-14T00:30:43.994Z,68.90
2023-04-14T00:31:46.182Z,68.90
2023-04-14T00:32:48.425Z,69.10
2023-04-14T00:33:50.557Z,69.10
2023-04-14T00:34:52.992Z,68.90
2023-04-14T00:35:55.229Z,69.00
2023-04-14T00:36:57.463Z,68.90
2023-04-14T00:37:59.699Z,69.00
2023-04-14T00:39:02.126Z,69.30
2023-04-14T00:40:05.196Z,69.50
2023-04-14T00:41:07.336Z,69.80
2023-04-14T00:42:09.516Z,69.80
2023-04-14T00:43:13.021Z,69.70
2023-04-14T00:44:15.286Z,69.60
2023-04-14T00:45:17.557Z,69.50
2023-04-14T00:46:19.959Z,69.50
2023-04-14T00:47:25.190Z,69.40
2023-04-14T00:48:27.548Z,69.30
2023-04-14T00:49:30.036Z,69.10
2023-04-14T00:50:33.561Z,69.00
2023-04-14T00:51:37.032Z,69.00
2023-04-14T00:52:39.668Z,69.10
2023-04-14T00:53:42.327Z,69.00
2023-04-14T00:54:44.706Z,69.00
2023-04-14T00:55:47.067Z,68.80
2023-04-14T00:56:50.749Z,68.80
2023-04-14T00:57:53.076Z,68.80
2023-04-14T00:58:56.707Z,68.80
2023-04-14T01:00:00.893Z,68.90
2023-04-14T01:01:03.460Z,69.00
2023-04-14T01:02:05.966Z,69.10
2023-04-14T01:03:08.390Z,69.00
2023-04-14T01:04:10.950Z,69.10
2023-04-14T01:05:13.377Z,69.10
2023-04-14T01:06:15.583Z,69.00
2023-04-14T01:07:18.352Z,69.00
2023-04-14T01:08:22.104Z,69.00
2023-04-14T01:09:25.859Z,69.10
2023-04-14T01:10:34.516Z,69.00
2023-04-14T01:11:44.182Z,69.70
2023-04-14T01:13:07.493Z,69.10
2023-04-14T01:14:18.508Z,69.10
2023-04-14T01:15:27.318Z,69.10
2023-04-14T01:16:32.299Z,69.10
2023-04-14T01:17:39.885Z,68.90
2023-04-14T01:18:53.539Z,68.90
2023-04-14T01:20:08.627Z,68.80
2023-04-14T01:21:14.113Z,68.80
2023-04-14T01:22:18.828Z,68.70
2023-04-14T01:23:26.182Z,68.70
2023-04-14T01:24:41.014Z,68.80
2023-04-14T01:26:18.238Z,68.80
2023-04-14T01:27:36.948Z,68.60
2023-04-14T01:29:26.615Z,68.70
2023-04-14T01:30:44.216Z,68.60
2023-04-14T01:33:08.420Z,68.80
2023-04-14T01:34:14.704Z,68.70
2023-04-14T01:35:21.327Z,68.70
2023-04-14T01:36:31.817Z,68.60
2023-04-14T01:37:39.803Z,68.50
2023-04-14T01:38:44.233Z,68.40
2023-04-14T01:39:52.311Z,68.40
2023-04-14T01:40:59.403Z,68.30
2023-04-14T01:42:06.512Z,68.20
2023-04-14T01:43:11.594Z,68.20
2023-04-14T01:44:16.076Z,68.10
2023-04-14T01:45:23.558Z,68.10
2023-04-14T01:46:25.872Z,68.00
2023-04-14T01:47:29.656Z,67.90
2023-04-14T01:48:33.389Z,68.00
2023-04-14T01:49:39.533Z,67.80
2023-04-14T01:50:42.424Z,67.90
2023-04-14T01:51:45.593Z,68.00
2023-04-14T01:52:51.452Z,68.00
2023-04-14T01:53:56.434Z,68.00
2023-04-14T01:55:01.704Z,68.00
2023-04-14T01:56:04.694Z,68.10
2023-04-14T01:57:08.211Z,68.10
2023-04-14T01:58:11.157Z,68.20
2023-04-14T01:59:14.864Z,68.20
2023-04-14T02:00:18.718Z,68.10
2023-04-14T02:01:21.261Z,68.10
2023-04-14T02:02:24.503Z,68.20
2023-04-14T02:03:28.503Z,68.20
2023-04-14T02:04:32.880Z,68.10
2023-04-14T02:05:37.070Z,68.20
2023-04-14T02:06:40.061Z,68.30
2023-04-14T02:07:42.877Z,68.40
2023-04-14T02:08:45.213Z,68.50
2023-04-14T02:09:49.338Z,68.60
2023-04-14T02:10:53.860Z,68.70
2023-04-14T02:11:57.278Z,68.80
2023-04-14T02:13:01.581Z,68.80
2023-04-14T02:14:05.041Z,68.90
2023-04-14T02:15:12.653Z,68.90
2023-04-14T02:16:15.574Z,68.70
2023-04-14T02:17:19.413Z,68.60
2023-04-14T02:18:23.767Z,68.60
2023-04-14T02:19:28.693Z,68.50
2023-04-14T02:20:33.426Z,68.60
2023-04-14T02:21:39.257Z,68.60
2023-04-14T02:22:41.505Z,68.50
2023-04-14T02:23:44.072Z,68.60
2023-04-14T02:24:47.203Z,68.50
2023-04-14T02:25:55.515Z,68.40
2023-04-14T02:27:04.141Z,68.50
2023-04-14T02:28:12.426Z,68.50
2023-04-14T02:29:17.137Z,68.50
2023-04-14T02:30:22.859Z,68.60
2023-04-14T02:31:27.242Z,68.60
2023-04-14T02:32:31.451Z,68.70
2023-04-14T02:33:37.478Z,68.60
2023-04-14T02:34:46.133Z,68.60
2023-04-14T02:35:56.417Z,68.60
2023-04-14T02:37:03.374Z,68.60
2023-04-14T02:38:08.667Z,68.50
2023-04-14T02:39:15.056Z,68.50
2023-04-14T02:40:22.208Z,68.50
2023-04-14T02:41:28.303Z,68.50
2023-04-14T02:42:34.069Z,68.50
2023-04-14T02:43:42.604Z,68.40
2023-04-14T02:44:49.150Z,68.40
2023-04-14T02:45:55.859Z,68.40
2023-04-14T02:47:06.850Z,68.40
2023-04-14T02:48:13.049Z,68.30
2023-04-14T02:49:17.536Z,68.30
2023-04-14T02:50:21.661Z,68.40
2023-04-14T02:51:27.435Z,68.50
2023-04-14T02:52:31.638Z,68.60
2023-04-14T02:53:34.580Z,68.50
2023-04-14T02:54:40.535Z,68.40
2023-04-14T02:55:43.850Z,68.30
2023-04-14T02:56:46.649Z,68.20
2023-04-14T02:57:50.503Z,68.20
2023-04-14T02:58:52.965Z,68.10
2023-04-14T02:59:56.112Z,68.10
2023-04-14T03:00:58.919Z,68.00
2023-04-14T03:02:06.212Z,68.00
2023-04-14T03:03:09.935Z,67.90
2023-04-14T03:04:14.754Z,67.80
2023-04-14T03:05:17.270Z,67.80
2023-04-14T03:06:19.588Z,67.80
2023-04-14T03:07:24.407Z,67.90
2023-04-14T03:08:28.064Z,67.80
2023-04-14T03:09:32.014Z,67.70
2023-04-14T03:10:34.360Z,67.60
2023-04-14T03:11:38.342Z,67.50
2023-04-14T03:12:42.220Z,67.50
2023-04-14T03:13:45.741Z,67.50
2023-04-14T03:14:48.568Z,67.30
2023-04-14T03:15:51.981Z,67.20
2023-04-14T03:16:56.185Z,67.20
2023-04-14T03:17:59.827Z,67.20
2023-04-14T03:19:03.921Z,67.30
2023-04-14T03:20:07.701Z,67.30
2023-04-14T03:21:10.035Z,67.20
2023-04-14T03:22:13.727Z,67.20
2023-04-14T03:23:20.292Z,67.30
2023-04-14T03:24:27.508Z,67.40
2023-04-14T03:25:31.037Z,67.40
2023-04-14T03:26:34.638Z,67.30
2023-04-14T03:27:37.706Z,67.40
2023-04-14T03:28:42.797Z,67.50
2023-04-14T03:29:47.725Z,67.50
2023-04-14T03:30:54.034Z,67.40
2023-04-14T03:31:58.521Z,67.20
2023-04-14T03:33:06.190Z,67.10
2023-04-14T03:34:09.731Z,67.00
2023-04-14T03:35:15.529Z,67.10
2023-04-14T03:36:20.038Z,67.10
2023-04-14T03:37:25.054Z,67.20
2023-04-14T03:38:29.495Z,67.00
2023-04-14T03:39:34.648Z,66.80
2023-04-14T03:40:41.413Z,66.80
2023-04-14T03:41:47.985Z,66.80
2023-04-14T03:42:50.968Z,66.70
2023-04-14T03:43:56.885Z,66.50
2023-04-14T03:45:00.642Z,66.50
2023-04-14T03:46:05.445Z,66.60
2023-04-14T03:47:10.629Z,66.50
2023-04-14T03:48:15.251Z,66.40
2023-04-14T03:49:18.740Z,66.30
2023-04-14T03:50:23.211Z,66.30
2023-04-14T03:51:27.676Z,66.30
2023-04-14T03:52:35.590Z,66.40
2023-04-14T03:53:41.932Z,66.90
2023-04-14T03:54:46.728Z,66.00
2023-04-14T03:55:51.873Z,65.90
2023-04-14T03:56:57.828Z,65.70
2023-04-14T03:58:01.993Z,65.70
2023-04-14T03:59:05.347Z,65.60
2023-04-14T04:00:09.316Z,65.70
2023-04-14T04:01:12.604Z,65.60
2023-04-14T04:02:16.317Z,65.40
2023-04-14T04:03:19.670Z,65.40
2023-04-14T04:04:24.364Z,66.00
2023-04-14T04:05:27.682Z,65.40
2023-04-14T04:06:30.263Z,65.30
2023-04-14T04:07:32.890Z,65.40
2023-04-14T04:08:36.745Z,65.30
2023-04-14T04:09:41.388Z,65.30
2023-04-14T04:10:48.493Z,65.30
2023-04-14T04:11:52.670Z,65.10
2023-04-14T04:12:56.996Z,65.00
2023-04-14T04:13:59.811Z,64.90
2023-04-14T04:15:02.031Z,64.90
2023-04-14T04:16:08.944Z,64.90
2023-04-14T04:17:14.857Z,65.00
2023-04-14T04:18:18.298Z,64.90
2023-04-14T04:19:23.141Z,64.80
2023-04-14T04:20:26.305Z,64.70
2023-04-14T04:21:32.467Z,64.50
2023-04-14T04:22:37.869Z,64.40
2023-04-14T04:23:41.825Z,64.30
2023-04-14T04:24:46.102Z,64.20
2023-04-14T04:25:50.187Z,64.20
2023-04-14T04:26:54.299Z,64.10
2023-04-14T04:27:56.656Z,64.00
2023-04-14T04:29:00.678Z,63.90
2023-04-14T04:30:05.934Z,63.90
2023-04-14T04:31:10.293Z,63.80
2023-04-14T04:32:12.843Z,63.70
2023-04-14T04:33:16.042Z,63.70
2023-04-14T04:34:19.725Z,63.50
2023-04-14T04:35:23.922Z,63.50
2023-04-14T04:36:28.101Z,63.50
2023-04-14T04:37:32.060Z,63.30
2023-04-14T04:38:34.249Z,63.20
2023-04-14T04:39:36.436Z,63.00
2023-04-14T04:40:39.989Z,62.90
2023-04-14T04:41:42.378Z,62.80
2023-04-14T04:42:45.139Z,62.60
2023-04-14T04:43:47.238Z,62.50
2023-04-14T04:44:49.525Z,62.40
2023-04-14T04:46:09.526Z,62.40
2023-04-14T04:47:13.478Z,62.30
2023-04-14T04:48:15.635Z,62.30
2023-04-14T04:49:17.935Z,62.10
2023-04-14T04:50:20.051Z,61.90
2023-04-14T04:51:22.260Z,61.90
2023-04-14T04:52:25.823Z,61.80
2023-04-14T04:53:27.966Z,61.90
2023-04-14T04:54:30.360Z,61.70
2023-04-14T04:55:32.475Z,61.70
2023-04-14T04:56:36.350Z,61.70
2023-04-14T04:57:38.887Z,61.80
2023-04-14T04:58:41.236Z,62.00
2023-04-14T04:59:43.618Z,62.00
2023-04-14T05:00:46.571Z,62.00
2023-04-14T05:01:51.819Z,62.00
2023-04-14T05:02:56.603Z,61.80
2023-04-14T05:03:59.064Z,61.90
2023-04-14T05:05:01.418Z,61.80
2023-04-14T05:06:03.772Z,62.00
2023-04-14T05:07:06.007Z,62.10
2023-04-14T05:08:08.456Z,62.00
2023-04-14T05:09:10.778Z,62.10
2023-04-14T05:10:12.926Z,62.00
2023-04-14T05:11:15.228Z,62.00
2023-04-14T05:12:20.432Z,62.00
2023-04-14T05:13:25.857Z,62.00
2023-04-14T05:14:28.025Z,62.10
2023-04-14T05:15:30.415Z,62.00
2023-04-14T05:16:33.541Z,61.70
2023-04-14T05:17:35.840Z,62.40
2023-04-14T05:18:38.245Z,61.70
2023-04-14T05:19:40.459Z,61.90
2023-04-14T05:20:42.696Z,61.90
2023-04-14T05:21:44.986Z,61.60
2023-04-14T05:22:47.129Z,61.50
2023-04-14T05:23:49.368Z,61.30
2023-04-14T05:24:51.804Z,61.20
2023-04-14T05:26:01.296Z,61.20
2023-04-14T05:27:14.290Z,61.10
2023-04-14T05:28:18.375Z,61.10
2023-04-14T05:29:20.769Z,60.80
2023-04-14T05:30:22.880Z,60.60
2023-04-14T05:31:25.208Z,60.60
2023-04-14T05:32:29.208Z,60.60
2023-04-14T05:33:31.490Z,60.40
2023-04-14T05:34:33.647Z,60.30
2023-04-14T05:35:35.717Z,60.10
2023-04-14T05:36:37.836Z,59.90
2023-04-14T05:37:39.972Z,59.80
2023-04-14T05:38:42.253Z,59.70
2023-04-14T05:39:45.020Z,59.60
2023-04-14T05:40:48.169Z,59.50
2023-04-14T05:41:50.292Z,59.50
2023-04-14T05:42:52.367Z,59.40
2023-04-14T05:43:57.452Z,59.40
2023-04-14T05:44:59.649Z,59.30
2023-04-14T05:46:02.065Z,59.30
2023-04-14T05:47:04.281Z,59.30
2023-04-14T05:48:08.985Z,59.20
2023-04-14T05:49:11.429Z,59.10
2023-04-14T05:50:14.273Z,58.90
2023-04-14T05:51:16.719Z,58.90
2023-04-14T05:52:18.857Z,58.80
2023-04-14T05:53:21.005Z,58.70
2023-04-14T05:54:23.083Z,58.70
2023-04-14T05:55:25.223Z,58.70
2023-04-14T05:56:27.773Z,58.70
2023-04-14T05:57:30.406Z,58.50
2023-04-14T05:58:32.486Z,58.20
2023-04-14T05:59:35.938Z,58.30
2023-04-14T06:01:04.279Z,58.20
2023-04-14T06:02:07.475Z,58.30
2023-04-14T06:03:10.261Z,58.10
2023-04-14T06:04:13.894Z,58.20
2023-04-14T06:05:16.363Z,58.10
2023-04-14T06:06:20.188Z,58.00
2023-04-14T06:07:22.401Z,57.80
2023-04-14T06:08:25.501Z,57.80
2023-04-14T06:09:27.981Z,57.50
2023-04-14T06:10:32.081Z,57.40
2023-04-14T06:11:34.873Z,57.20
2023-04-14T06:12:37.828Z,57.20
2023-04-14T06:13:40.204Z,57.30
2023-04-14T06:14:45.228Z,57.30
2023-04-14T06:15:48.477Z,57.30
2023-04-14T06:16:51.131Z,57.30
2023-04-14T06:17:53.515Z,57.10
2023-04-14T06:18:56.685Z,57.20
2023-04-14T06:19:59.025Z,57.20
2023-04-14T06:21:02.999Z,57.20
2023-04-14T06:22:05.943Z,57.20
2023-04-14T06:23:08.586Z,57.20
2023-04-14T06:24:11.003Z,57.10
2023-04-14T06:25:13.526Z,57.10
2023-04-14T06:26:15.998Z,57.00
2023-04-14T06:27:18.308Z,57.00
2023-04-14T06:28:23.962Z,57.00
2023-04-14T06:29:26.130Z,57.10
2023-04-14T06:30:29.706Z,57.00
2023-04-14T06:31:31.922Z,57.00
2023-04-14T06:32:35.675Z,56.80
2023-04-14T06:33:37.814Z,56.80
2023-04-14T06:34:40.016Z,56.80
2023-04-14T06:35:43.714Z,56.90
2023-04-14T06:36:46.153Z,56.90
2023-04-14T06:37:48.311Z,56.90
2023-04-14T06:38:50.638Z,56.60
2023-04-14T06:39:52.705Z,56.50
2023-04-14T06:40:57.960Z,56.40
2023-04-14T06:42:00.988Z,56.30
2023-04-14T06:43:03.100Z,56.40
2023-04-14T06:44:05.355Z,56.40
2023-04-14T06:45:08.605Z,56.40
2023-04-14T06:46:12.883Z,56.50
2023-04-14T06:47:19.690Z,56.60
2023-04-14T06:48:22.251Z,56.60
2023-04-14T06:49:25.703Z,56.40
2023-04-14T06:50:27.837Z,56.30
2023-04-14T06:51:30.234Z,56.30
2023-04-14T06:52:32.473Z,56.30
2023-04-14T06:53:37.411Z,56.20
2023-04-14T06:54:39.966Z,56.20
2023-04-14T06:55:42.530Z,56.20
2023-04-14T06:56:44.748Z,56.10
2023-04-14T06:57:46.950Z,56.00
2023-04-14T06:58:49.332Z,55.90
2023-04-14T06:59:51.510Z,56.00
2023-04-14T07:00:56.259Z,56.10
2023-04-14T07:02:00.792Z,56.00
2023-04-14T07:03:03.303Z,55.90
2023-04-14T07:04:07.780Z,56.00
2023-04-14T07:05:10.618Z,55.90
2023-04-14T07:06:17.187Z,55.90
2023-04-14T07:07:19.524Z,55.90
2023-04-14T07:08:22.001Z,55.80
2023-04-14T07:09:24.721Z,55.80
2023-04-14T07:10:26.909Z,55.90
2023-04-14T07:11:30.283Z,55.90
2023-04-14T07:12:33.038Z,56.00
2023-04-14T07:13:35.783Z,55.90
2023-04-14T07:14:38.026Z,55.90
2023-04-14T07:15:45.464Z,55.90
2023-04-14T07:16:48.273Z,56.00
2023-04-14T07:17:51.910Z,56.00
2023-04-14T07:18:54.092Z,55.90
2023-04-14T07:19:56.805Z,56.00
2023-04-14T07:20:59.642Z,56.20
2023-04-14T07:22:02.115Z,56.30
2023-04-14T07:23:04.278Z,56.20
2023-04-14T07:24:06.820Z,56.10
2023-04-14T07:25:09.614Z,56.20
2023-04-14T07:26:11.918Z,56.30
2023-04-14T07:27:15.672Z,56.50
2023-04-14T07:28:18.224Z,56.40
2023-04-14T07:29:20.409Z,56.40
2023-04-14T07:30:22.709Z,56.50
2023-04-14T07:31:24.986Z,56.40
2023-04-14T07:32:27.425Z,56.40
2023-04-14T07:33:31.450Z,56.40
2023-04-14T07:34:33.905Z,56.30
2023-04-14T07:35:36.077Z,56.30
2023-04-14T07:36:38.296Z,56.20
2023-04-14T07:37:40.510Z,56.10
2023-04-14T07:38:43.886Z,56.20
2023-04-14T07:39:46.063Z,56.20
2023-04-14T07:40:48.135Z,56.20
2023-04-14T07:41:52.718Z,56.20
2023-04-14T07:42:55.048Z,56.10
2023-04-14T07:43:59.683Z,56.20
2023-04-14T07:45:02.642Z,56.10
2023-04-14T07:46:06.716Z,56.00
2023-04-14T07:47:09.050Z,56.00
2023-04-14T07:48:11.330Z,56.00
2023-04-14T07:49:15.032Z,56.20
2023-04-14T07:50:19.645Z,56.10
2023-04-14T07:51:22.209Z,56.20
2023-04-14T07:52:24.306Z,56.10
2023-04-14T07:53:26.466Z,56.00
2023-04-14T07:54:28.707Z,56.00
2023-04-14T07:55:30.879Z,55.90
2023-04-14T07:56:33.066Z,56.00
2023-04-14T07:57:35.472Z,56.00
2023-04-14T07:58:37.802Z,55.90
2023-04-14T07:59:42.980Z,56.10
2023-04-14T08:00:45.574Z,56.20
2023-04-14T08:01:48.557Z,56.10
2023-04-14T08:02:50.915Z,56.00
2023-04-14T08:03:53.601Z,55.80
2023-04-14T08:04:58.924Z,55.70
2023-04-14T08:06:01.498Z,55.60
2023-04-14T08:07:03.706Z,55.60
2023-04-14T08:08:08.339Z,55.50
2023-04-14T08:09:12.224Z,55.60
2023-04-14T08:10:14.380Z,55.60
2023-04-14T08:11:16.543Z,55.60
2023-04-14T08:12:18.697Z,55.50
2023-04-14T08:13:20.817Z,55.60
2023-04-14T08:14:22.980Z,55.70
2023-04-14T08:15:27.652Z,55.60
2023-04-14T08:16:30.261Z,55.50
2023-04-14T08:17:32.967Z,55.50
2023-04-14T08:18:35.274Z,55.50
2023-04-14T08:19:38.110Z,55.60
2023-04-14T08:20:41.716Z,55.60
2023-04-14T08:21:43.847Z,55.50
2023-04-14T08:22:46.483Z,55.30
2023-04-14T08:23:48.606Z,55.30
2023-04-14T08:24:50.685Z,55.20
2023-04-14T08:25:52.869Z,55.20
2023-04-14T08:26:56.046Z,55.00
2023-04-14T08:27:58.774Z,54.80
2023-04-14T08:29:01.295Z,54.80
2023-04-14T08:30:04.029Z,54.90
2023-04-14T08:31:06.572Z,54.70
2023-04-14T08:32:08.797Z,54.60
2023-04-14T08:33:11.276Z,54.70
2023-04-14T08:34:13.430Z,54.70
2023-04-14T08:35:38.526Z,54.70
2023-04-14T08:36:44.862Z,54.80
2023-04-14T08:37:47.010Z,54.80
2023-04-14T08:38:49.166Z,54.80
2023-04-14T08:39:51.351Z,54.70
2023-04-14T08:40:56.463Z,54.70
2023-04-14T08:41:58.723Z,54.70
2023-04-14T08:43:00.836Z,54.40
2023-04-14T08:44:03.277Z,54.20
2023-04-14T08:45:06.668Z,54.30
2023-04-14T08:46:13.437Z,54.20
2023-04-14T08:47:16.236Z,54.30
2023-04-14T08:48:20.746Z,54.30
2023-04-14T08:49:34.024Z,54.10
2023-04-14T08:50:38.333Z,53.70
2023-04-14T08:51:45.467Z,53.80
2023-04-14T08:52:49.503Z,53.80
2023-04-14T08:53:53.582Z,53.70
2023-04-14T08:54:58.099Z,53.70
2023-04-14T08:56:03.980Z,53.50
2023-04-14T08:57:08.555Z,53.30
2023-04-14T08:58:11.329Z,53.20
2023-04-14T08:59:13.643Z,53.10
2023-04-14T09:00:16.987Z,52.90
2023-04-14T09:01:19.577Z,52.90
2023-04-14T09:02:22.057Z,52.80
2023-04-14T09:03:25.550Z,52.80
2023-04-14T09:04:29.725Z,52.90
2023-04-14T09:05:32.924Z,52.80
2023-04-14T09:06:35.896Z,52.80
2023-04-14T09:07:39.889Z,52.80
2023-04-14T09:08:42.119Z,52.90
2023-04-14T09:09:52.343Z,52.80
2023-04-14T09:10:54.890Z,52.90
2023-04-14T09:11:57.739Z,52.80
2023-04-14T09:13:01.437Z,52.60
2023-04-14T09:14:04.793Z,52.60
2023-04-14T09:15:08.430Z,53.00
2023-04-14T09:16:12.406Z,52.50
2023-04-14T09:17:14.738Z,52.40
2023-04-14T09:18:17.367Z,52.20
2023-04-14T09:19:20.350Z,52.10
2023-04-14T09:20:38.748Z,52.30
2023-04-14T09:21:53.538Z,52.00
2023-04-14T09:22:58.633Z,51.90
2023-04-14T09:24:01.168Z,52.00
2023-04-14T09:25:05.124Z,51.80
2023-04-14T09:26:09.344Z,51.60
2023-04-14T09:27:12.572Z,51.60
2023-04-14T09:28:15.267Z,51.30
2023-04-14T09:29:17.407Z,51.30
2023-04-14T09:30:20.723Z,51.20
2023-04-14T09:31:23.822Z,51.40
2023-04-14T09:32:26.562Z,51.30
2023-04-14T09:33:28.883Z,51.20
2023-04-14T09:34:31.224Z,51.10
2023-04-14T09:35:44.765Z,51.10
2023-04-14T09:37:02.418Z,50.80
2023-04-14T09:38:07.261Z,50.60
2023-04-14T09:39:17.864Z,50.50
2023-04-14T09:40:29.875Z,50.80
2023-04-14T09:41:32.643Z,51.00
2023-04-14T09:42:39.884Z,50.80
2023-04-14T09:43:42.924Z,50.60
2023-04-14T09:44:55.409Z,50.30
2023-04-14T09:45:58.549Z,50.10
2023-04-14T09:47:01.876Z,50.10
2023-04-14T09:48:07.828Z,50.00
2023-04-14T09:49:10.048Z,50.00
2023-04-14T09:50:12.235Z,50.00
2023-04-14T09:51:14.345Z,50.00
2023-04-14T09:52:17.093Z,49.90
2023-04-14T09:53:27.840Z,49.80
2023-04-14T09:54:30.403Z,49.50
2023-04-14T09:55:33.093Z,49.40
2023-04-14T09:56:35.212Z,49.40
2023-04-14T09:57:38.446Z,49.40
2023-04-14T09:58:42.605Z,49.50
2023-04-14T09:59:46.925Z,49.80
2023-04-14T10:00:49.849Z,49.80
2023-04-14T10:01:52.083Z,49.70
2023-04-14T10:02:56.420Z,50.00
2023-04-14T10:03:58.834Z,49.80
2023-04-14T10:05:08.084Z,49.60
2023-04-14T10:06:16.291Z,49.70
2023-04-14T10:07:19.892Z,49.90
2023-04-14T10:08:22.045Z,50.00
2023-04-14T10:09:29.980Z,49.90
2023-04-14T10:10:32.655Z,49.70
2023-04-14T10:11:35.648Z,49.50
2023-04-14T10:12:38.086Z,49.30
2023-04-14T10:13:40.230Z,49.20
2023-04-14T10:14:43.984Z,49.10
2023-04-14T10:15:46.701Z,49.40
2023-04-14T10:16:49.384Z,49.30
2023-04-14T10:17:51.705Z,48.90
2023-04-14T10:18:54.981Z,48.80
2023-04-14T10:19:57.337Z,48.70
2023-04-14T10:21:01.450Z,48.70
2023-04-14T10:22:04.908Z,48.90
2023-04-14T10:23:07.138Z,48.60
2023-04-14T10:24:10.241Z,48.60
2023-04-14T10:25:14.478Z,48.70
2023-04-14T10:26:17.309Z,48.40
2023-04-14T10:27:19.851Z,48.00
2023-04-14T10:28:23.041Z,48.10
2023-04-14T10:29:25.963Z,47.90
2023-04-14T10:30:28.273Z,48.20
2023-04-14T10:31:33.398Z,48.40
2023-04-14T10:32:37.658Z,48.20
2023-04-14T10:33:40.409Z,48.20
2023-04-14T10:34:56.715Z,48.10
2023-04-14T10:36:03.550Z,48.00
2023-04-14T10:37:16.147Z,48.00
2023-04-14T10:38:18.380Z,48.50
2023-04-14T10:39:22.683Z,48.60
2023-04-14T10:40:26.456Z,48.20
2023-04-14T10:41:37.044Z,47.80
2023-04-14T10:42:54.484Z,47.50
2023-04-14T10:43:56.742Z,47.10
2023-04-14T10:45:06.785Z,47.20
2023-04-14T10:46:10.167Z,47.10
2023-04-14T10:47:25.812Z,47.30
2023-04-14T10:48:33.441Z,47.40
2023-04-14T10:49:36.995Z,48.20
2023-04-14T10:50:47.731Z,47.90
2023-04-14T10:51:50.204Z,47.80
2023-04-14T10:52:56.688Z,47.90
2023-04-14T10:54:03.259Z,48.10
2023-04-14T10:55:09.879Z,48.20
2023-04-14T10:56:13.876Z,48.40
2023-04-14T10:57:16.041Z,48.70
2023-04-14T10:58:22.754Z,49.40
2023-04-14T10:59:25.059Z,49.20
2023-04-14T11:00:29.096Z,49.40
2023-04-14T11:01:32.829Z,49.40
2023-04-14T11:02:35.525Z,49.50
2023-04-14T11:03:45.103Z,49.50
2023-04-14T11:05:02.400Z,50.20
2023-04-14T11:06:04.979Z,49.90
2023-04-14T11:07:09.630Z,50.20
2023-04-14T11:08:16.513Z,50.30
2023-04-14T11:09:26.494Z,50.40
2023-04-14T11:10:31.954Z,50.50
2023-04-14T11:11:35.513Z,50.50
2023-04-14T11:12:43.514Z,50.60
2023-04-14T11:14:06.098Z,50.70
2023-04-14T11:15:09.154Z,50.80
2023-04-14T11:16:12.713Z,50.90
2023-04-14T11:17:22.331Z,51.00
2023-04-14T11:18:33.312Z,51.00
2023-04-14T11:19:35.930Z,51.00
2023-04-14T11:20:42.021Z,51.00
2023-04-14T11:21:50.032Z,50.90
2023-04-14T11:22:53.231Z,50.90
2023-04-14T11:23:59.351Z,51.00
2023-04-14T11:25:02.580Z,51.10
2023-04-14T11:26:06.523Z,51.20
2023-04-14T11:27:13.637Z,51.20
2023-04-14T11:28:15.901Z,51.10
2023-04-14T11:29:18.050Z,51.20
2023-04-14T11:30:21.311Z,51.10
2023-04-14T11:31:29.020Z,51.10
2023-04-14T11:32:31.823Z,50.90
2023-04-14T11:33:36.505Z,50.70
2023-04-14T11:34:39.084Z,50.70
2023-04-14T11:35:42.919Z,50.70
2023-04-14T11:36:45.171Z,50.60
2023-04-14T11:37:47.446Z,50.50
2023-04-14T11:38:52.408Z,50.60
2023-04-14T11:39:54.600Z,50.80
2023-04-14T11:40:56.867Z,50.80
2023-04-14T11:42:01.868Z,50.90
2023-04-14T11:43:08.959Z,50.90
2023-04-14T11:44:16.858Z,50.90
2023-04-14T11:45:19.280Z,51.00
2023-04-14T11:46:22.350Z,50.80
2023-04-14T11:47:24.647Z,50.80
2023-04-14T11:48:29.235Z,50.90
2023-04-14T11:49:36.137Z,51.20
2023-04-14T11:50:39.199Z,51.20
2023-04-14T11:51:41.502Z,51.20
2023-04-14T11:52:46.044Z,51.20
2023-04-14T11:53:48.744Z,51.20
2023-04-14T11:54:51.304Z,51.30
2023-04-14T11:55:54.242Z,51.30
2023-04-14T11:56:56.553Z,51.30
2023-04-14T11:57:59.324Z,51.30
2023-04-14T11:59:04.372Z,51.20
2023-04-14T12:00:08.443Z,51.10
2023-04-14T12:01:14.470Z,51.00
2023-04-14T12:02:19.009Z,51.10
2023-04-14T12:03:22.044Z,51.10
2023-04-14T12:04:24.949Z,51.20
2023-04-14T12:05:31.627Z,51.10
2023-04-14T12:06:37.195Z,50.90
2023-04-14T12:07:41.945Z,51.00
2023-04-14T12:08:50.471Z,51.00
2023-04-14T12:09:52.711Z,50.80
2023-04-14T12:10:56.393Z,50.70
2023-04-14T12:12:01.803Z,50.70
2023-04-14T12:13:06.506Z,50.70
2023-04-14T12:14:10.369Z,50.60
2023-04-14T12:15:13.650Z,50.40
2023-04-14T12:16:19.096Z,50.50
2023-04-14T12:17:21.860Z,50.40
2023-04-14T12:18:24.181Z,50.40
2023-04-14T12:19:26.450Z,50.40
2023-04-14T12:20:30.556Z,50.30
2023-04-14T12:21:32.823Z,50.20
2023-04-14T12:22:35.345Z,49.80
2023-04-14T12:23:40.930Z,49.40
2023-04-14T12:24:46.926Z,48.90
2023-04-14T12:25:50.673Z,48.70
2023-04-14T12:26:52.975Z,48.60
2023-04-14T12:27:57.101Z,47.80
2023-04-14T12:28:59.699Z,47.30
2023-04-14T12:30:05.572Z,46.70
2023-04-14T12:31:10.234Z,45.90
2023-04-14T12:32:13.021Z,44.90
2023-04-14T12:33:15.291Z,44.10
2023-04-14T12:34:25.581Z,43.70
2023-04-14T12:35:35.179Z,43.70
2023-04-14T12:36:49.679Z,43.60
2023-04-14T12:37:53.442Z,43.10
2023-04-14T12:38:55.592Z,42.90
2023-04-14T12:40:00.189Z,42.90
2023-04-14T12:41:02.633Z,43.40
2023-04-14T12:42:04.875Z,43.50
2023-04-14T12:43:07.361Z,43.30
2023-04-14T12:44:16.849Z,43.40
2023-04-14T12:45:20.653Z,43.40
2023-04-14T12:46:26.692Z,43.60
2023-04-14T12:47:30.400Z,44.10
2023-04-14T12:48:41.140Z,44.50
2023-04-14T12:49:43.898Z,44.30
2023-04-14T12:50:46.284Z,44.40
2023-04-14T12:51:48.506Z,44.40
2023-04-14T12:52:51.999Z,44.60
2023-04-14T12:54:07.459Z,44.80
2023-04-14T12:55:20.097Z,45.30
2023-04-14T12:56:22.725Z,45.50
2023-04-14T12:57:24.957Z,45.70
2023-04-14T12:58:29.976Z,46.20
2023-04-14T12:59:32.128Z,46.30
2023-04-14T13:00:40.456Z,46.50
2023-04-14T13:01:42.868Z,46.70
2023-04-14T13:02:46.453Z,47.30
2023-04-14T13:03:52.031Z,46.70
2023-04-14T13:04:54.889Z,46.40
2023-04-14T13:05:56.991Z,46.40
2023-04-14T13:07:04.829Z,46.30
2023-04-14T13:08:07.088Z,46.30
2023-04-14T13:09:09.218Z,46.00
2023-04-14T13:10:11.898Z,45.80
2023-04-14T13:11:14.755Z,45.90
2023-04-14T13:12:16.994Z,45.90
2023-04-14T13:13:19.216Z,46.10
2023-04-14T13:14:21.678Z,45.90
2023-04-14T13:16:12.092Z,45.50
2023-04-14T13:16:47.454Z,45.10
2023-04-14T13:17:49.761Z,45.10
2023-04-14T13:18:51.906Z,45.00
2023-04-14T13:19:54.144Z,45.10
2023-04-14T13:20:56.442Z,44.90
2023-04-14T13:21:58.610Z,44.90
2023-04-14T13:23:01.431Z,44.70
2023-04-14T13:24:04.066Z,44.70
2023-04-14T13:25:07.740Z,44.70
2023-04-14T13:26:09.976Z,44.90
2023-04-14T13:27:12.441Z,44.90
2023-04-14T13:28:14.892Z,44.90
2023-04-14T13:29:17.130Z,44.60
2023-04-14T13:30:19.498Z,44.40
2023-04-14T13:31:21.789Z,44.40
2023-04-14T13:32:26.126Z,44.70
2023-04-14T13:33:29.535Z,45.60
2023-04-14T13:34:32.398Z,45.50
2023-04-14T13:35:34.676Z,45.90
2023-04-14T13:36:37.063Z,46.20
2023-04-14T13:37:39.230Z,46.60
2023-04-14T13:38:41.891Z,46.70
2023-04-14T13:39:46.856Z,46.70
2023-04-14T13:40:49.127Z,47.10
2023-04-14T13:41:52.312Z,47.10
2023-04-14T13:42:54.932Z,47.30
2023-04-14T13:43:57.309Z,47.30
2023-04-14T13:44:59.859Z,47.30
2023-04-14T13:46:02.506Z,47.40
2023-04-14T13:47:04.813Z,47.40
2023-04-14T13:48:08.461Z,47.50
2023-04-14T13:49:10.702Z,47.60